Time;durP1;ratioP1;P1;durP2;ratioP2;P2;SDS_P1;SDS_P2;PMS_P1;PMS_P2;Temp;Humidity;BMP_temperature;BMP_pressure;BME280_temperature;BME280_humidity;BME280_pressure;Samples;Min_cycle;Max_cycle;Signal;HPM_P1;HPM_P2
2021/10/09 00:01:25;;;;;;;6.58;4.20;;;;;;;22.28;51.97;101694.83;1763019;80;21024;-57
2021/10/09 00:03:54;;;;;;;5.53;4.00;;;;;;;22.28;51.95;101690.67;1771788;80;21465;-59
2021/10/09 00:06:20;;;;;;;7.50;4.22;;;;;;;22.26;51.95;101685.45;1767107;80;21148;-57
2021/10/09 00:08:46;;;;;;;5.67;4.12;;;;;;;22.25;51.96;101691.29;1762678;80;21463;-57
2021/10/09 00:11:18;;;;;;;7.22;4.53;;;;;;;22.24;51.97;101689.64;1769369;80;21199;-57
2021/10/09 00:13:43;;;;;;;;;;;;;;;22.23;51.99;101694.39;1762734;80;21050;-56
2021/10/09 00:16:09;;;;;;;6.53;3.83;;;;;;;22.23;52.03;101699.11;1762256;80;20436;-57
2021/10/09 00:18:35;;;;;;;7.90;4.58;;;;;;;22.22;52.03;101691.91;1769176;80;20889;-57
2021/10/09 00:21:01;;;;;;;5.97;3.80;;;;;;;22.21;52.04;101684.16;1763615;80;21500;-56
2021/10/09 00:23:27;;;;;;;6.67;3.75;;;;;;;22.21;52.06;101682.77;1764412;80;21190;-56
2021/10/09 00:25:55;;;;;;;5.92;3.98;;;;;;;22.21;52.05;101684.16;1760173;80;21320;-57
2021/10/09 00:28:22;;;;;;;7.40;3.85;;;;;;;22.21;52.05;101688.88;1765088;80;21564;-57
2021/10/09 00:30:48;;;;;;;7.65;4.08;;;;;;;22.19;52.02;101680.06;1761039;80;21012;-56
2021/10/09 00:33:14;;;;;;;7.67;3.90;;;;;;;22.16;52.05;101690.36;1768643;80;21672;-57
2021/10/09 00:35:40;;;;;;;7.12;3.75;;;;;;;22.17;52.08;101696.16;1763940;80;21637;-57
2021/10/09 00:38:06;;;;;;;6.60;4.08;;;;;;;22.15;52.12;101689.53;1767274;80;21064;-57
2021/10/09 00:40:32;;;;;;;5.20;3.47;;;;;;;22.16;52.15;101685.64;1763166;80;21484;-56
2021/10/09 00:42:59;;;;;;;5.80;3.83;;;;;;;22.18;52.15;101683.95;1761839;80;21061;-57
2021/10/09 00:45:24;;;;;;;5.10;3.62;;;;;;;22.16;52.15;101682.87;1765680;80;21003;-57
2021/10/09 00:47:51;;;;;;;6.12;3.60;;;;;;;22.17;52.14;101672.61;1762094;80;21696;-57
2021/10/09 00:50:18;;;;;;;7.22;3.80;;;;;;;22.15;52.14;101668.75;1757770;79;21025;-57
2021/10/09 00:52:44;;;;;;;7.50;4.55;;;;;;;22.13;52.16;101672.41;1758337;80;21016;-57
2021/10/09 00:55:10;;;;;;;4.62;3.30;;;;;;;22.11;52.17;101674.65;1759354;80;21070;-57
2021/10/09 00:57:37;;;;;;;6.55;3.80;;;;;;;22.11;52.22;101674.65;1763945;80;21015;-57
2021/10/09 01:00:06;;;;;;;7.10;3.58;;;;;;;22.11;52.24;101673.82;1724192;80;21084;-57
2021/10/09 01:02:35;;;;;;;5.55;3.70;;;;;;;22.11;52.25;101674.65;1761775;80;21119;-55
2021/10/09 01:05:01;;;;;;;7.67;3.55;;;;;;;22.12;52.25;101670.75;1793733;78;20993;-55
2021/10/09 01:07:27;;;;;;;6.70;3.72;;;;;;;22.13;52.25;101672.97;1772369;79;20925;-55
2021/10/09 01:09:53;;;;;;;5.85;3.42;;;;;;;22.12;52.24;101667.16;1783477;78;21669;-56
2021/10/09 01:12:19;;;;;;;6.45;3.95;;;;;;;22.12;52.24;101669.93;1788985;79;21283;-54
2021/10/09 01:14:45;;;;;;;7.03;3.67;;;;;;;22.09;52.25;101665.83;1796318;79;21567;-55
2021/10/09 01:17:12;;;;;;;6.55;3.55;;;;;;;22.08;52.27;101662.80;1789841;78;20923;-56
2021/10/09 01:19:39;;;;;;;6.15;3.20;;;;;;;22.07;52.30;101658.94;1795771;77;21402;-55
2021/10/09 01:22:05;;;;;;;5.15;3.52;;;;;;;22.07;52.34;101662.53;1793375;79;21072;-56
2021/10/09 01:24:32;;;;;;;5.67;3.50;;;;;;;22.08;52.35;101662.80;1788315;78;21401;-56
2021/10/09 01:26:58;;;;;;;5.87;3.47;;;;;;;22.08;52.36;101666.95;1791587;79;21007;-55
2021/10/09 01:29:24;;;;;;;5.12;2.98;;;;;;;22.08;52.33;101666.12;1793022;78;21035;-56
2021/10/09 01:31:50;;;;;;;5.78;3.60;;;;;;;22.07;52.33;101655.61;1790605;78;21038;-56
2021/10/09 01:34:22;;;;;;;4.67;3.20;;;;;;;22.07;52.31;101662.53;1789527;78;20909;-56
2021/10/09 01:36:48;;;;;;;6.28;2.95;;;;;;;22.06;52.31;101653.16;1791692;78;21973;-56
2021/10/09 01:39:15;;;;;;;5.47;3.33;;;;;;;22.04;52.32;101659.56;1795699;78;20956;-56
2021/10/09 01:41:47;;;;;;;5.75;3.05;;;;;;;22.03;52.36;101653.19;1794897;78;21101;-56
2021/10/09 01:44:14;;;;;;;7.17;3.20;;;;;;;22.04;52.36;101655.41;1794161;78;21016;-55
2021/10/09 01:46:40;;;;;;;4.30;3.05;;;;;;;22.04;52.37;101656.79;1794555;78;21539;-56
2021/10/09 01:49:06;;;;;;;5.70;3.47;;;;;;;22.03;52.36;101650.98;1791660;78;22087;-56
2021/10/09 01:51:32;;;;;;;5.55;3.00;;;;;;;22.03;52.36;101650.42;1791888;78;21546;-56
2021/10/09 01:53:58;;;;;;;4.62;3.12;;;;;;;22.03;52.36;101659.30;1794502;78;20907;-56
2021/10/09 01:56:24;;;;;;;6.03;3.55;;;;;;;22.02;52.36;101657.11;1785552;78;21537;-56
2021/10/09 01:58:51;;;;;;;5.87;3.08;;;;;;;22.01;52.34;101659.63;1783163;78;21056;-55
2021/10/09 02:01:17;;;;;;;5.17;2.98;;;;;;;22.00;52.34;101655.76;1792890;78;21540;-56
2021/10/09 02:03:43;;;;;;;4.12;3.02;;;;;;;22.01;52.38;101661.57;1792860;78;21100;-56
2021/10/09 02:06:10;;;;;;;5.78;3.08;;;;;;;22.00;52.36;101657.14;1786520;78;21483;-56
2021/10/09 02:08:37;;;;;;;5.25;3.52;;;;;;;22.00;52.40;101664.90;1791482;78;21152;-56
2021/10/09 02:11:08;;;;;;;6.42;3.10;;;;;;;22.00;52.39;101659.91;1785230;78;21058;-56
2021/10/09 02:13:44;;;;;;;;;;;;;;;21.98;52.37;101660.80;1793396;78;21198;-56
2021/10/09 02:24:05;;;;;;;3.83;2.62;;;;;;;21.96;52.39;101664.43;1787233;78;20990;-56
2021/10/09 02:27:00;;;;;;;4.30;2.55;;;;;;;21.91;52.45;101667.26;1792033;78;21506;-55
2021/10/09 02:29:26;;;;;;;4.55;3.17;;;;;;;21.90;52.44;101661.48;1796976;78;20970;-55
2021/10/09 02:31:56;;;;;;;5.30;3.15;;;;;;;21.90;52.43;101663.66;1794738;78;21513;-55
2021/10/09 02:34:20;;;;;;;6.00;2.80;;;;;;;21.91;52.45;101663.92;1793868;79;21564;-55
2021/10/09 02:36:46;;;;;;;3.90;2.50;;;;;;;21.90;52.46;101671.18;1793882;78;21101;-56
2021/10/09 02:39:12;;;;;;;4.72;3.05;;;;;;;21.90;52.46;101674.74;1793599;78;21277;-56
2021/10/09 02:41:38;;;;;;;6.53;3.27;;;;;;;21.88;52.46;101672.30;1791579;78;21120;-56
2021/10/09 02:44:05;;;;;;;4.15;2.67;;;;;;;21.88;52.45;101677.02;1794952;78;21631;-56
2021/10/09 02:46:32;;;;;;;5.55;2.70;;;;;;;21.88;52.48;101679.78;1796087;78;22237;-56
2021/10/09 02:48:58;;;;;;;4.50;2.55;;;;;;;21.88;52.48;101677.02;1788367;78;21080;-56
2021/10/09 02:51:24;;;;;;;3.50;2.60;;;;;;;21.87;52.48;101681.73;1797567;78;21487;-56
2021/10/09 02:53:50;;;;;;;3.77;2.65;;;;;;;21.89;52.48;101681.44;1790865;78;21113;-56
2021/10/09 02:56:16;;;;;;;4.72;3.02;;;;;;;21.88;52.49;101680.61;1799456;78;21448;-56
2021/10/09 02:58:42;;;;;;;3.70;2.58;;;;;;;21.87;52.46;101675.36;1798052;78;20906;-56
2021/10/09 03:01:08;;;;;;;4.65;2.75;;;;;;;21.87;52.48;101677.58;1800029;77;21666;-54
2021/10/09 03:03:34;;;;;;;3.83;2.83;;;;;;;21.85;52.45;101676.25;1796976;78;21182;-57
2021/10/09 03:06:00;;;;;;;4.00;2.60;;;;;;;21.85;52.47;101672.09;1792942;78;21031;-55
2021/10/09 03:08:26;;;;;;;3.05;2.00;;;;;;;21.86;52.48;101683.41;1795263;78;20985;-55
2021/10/09 03:10:52;;;;;;;3.02;1.80;;;;;;;21.85;52.50;101677.05;1793426;78;21062;-56
2021/10/09 03:13:18;;;;;;;2.30;1.60;;;;;;;21.91;52.49;101675.01;1794791;78;20901;-56
2021/10/09 03:15:44;;;;;;;2.62;1.47;;;;;;;21.94;52.45;101665.31;1797807;78;21160;-56
2021/10/09 03:18:10;;;;;;;3.35;1.75;;;;;;;21.98;52.42;101675.45;1795759;78;21624;-56
2021/10/09 03:20:36;;;;;;;4.15;1.80;;;;;;;22.02;52.41;101671.53;1797722;78;20918;-56
2021/10/09 03:23:02;;;;;;;3.00;1.70;;;;;;;22.04;52.37;101673.41;1797169;78;21939;-56
2021/10/09 03:25:28;;;;;;;2.62;1.50;;;;;;;22.05;52.31;101668.96;1792184;78;20875;-56
2021/10/09 03:27:54;;;;;;;2.75;1.90;;;;;;;22.08;52.29;101674.44;1792150;79;21417;-56
2021/10/09 03:30:20;;;;;;;2.98;1.98;;;;;;;22.11;52.27;101672.44;1787171;78;21047;-56
2021/10/09 03:32:46;;;;;;;3.47;2.08;;;;;;;22.13;52.26;101677.13;1792599;78;21056;-56
2021/10/09 03:35:12;;;;;;;4.45;2.00;;;;;;;22.15;52.23;101677.06;1792710;79;21050;-56
2021/10/09 03:37:39;;;;;;;2.35;1.80;;;;;;;22.19;52.20;101673.14;1790474;78;20876;-56
2021/10/09 03:40:09;;;;;;;2.95;2.00;;;;;;;22.21;52.17;101673.63;1796507;78;21125;-56
2021/10/09 03:42:44;;;;;;;3.58;1.98;;;;;;;22.22;52.14;101674.72;1787924;78;21086;-55
2021/10/09 03:50:34;;;;;;;3.00;1.80;;;;;;;22.27;52.09;101661.33;1796565;78;20918;-56
2021/10/09 03:52:48;;;;;;;3.45;1.60;;;;;;;22.29;52.09;101672.34;1784242;78;21180;-56
2021/10/09 03:55:17;;;;;;;2.72;1.87;;;;;;;22.31;52.07;101663.17;1793320;79;21077;-56
2021/10/09 03:57:43;;;;;;;2.60;1.70;;;;;;;22.35;52.07;101667.53;1795199;78;21139;-55
2021/10/09 04:00:12;;;;;;;3.00;1.72;;;;;;;22.36;52.07;101664.20;1792022;79;21136;-56
2021/10/09 04:02:38;;;;;;;2.47;1.70;;;;;;;22.40;52.04;101668.00;1794676;79;20986;-56
2021/10/09 04:05:06;;;;;;;2.87;1.80;;;;;;;22.41;52.04;101671.83;1785371;78;22107;-56
2021/10/09 04:07:32;;;;;;;3.95;1.87;;;;;;;22.41;52.01;101673.77;1790365;78;21129;-56
2021/10/09 04:09:58;;;;;;;3.40;1.72;;;;;;;22.42;52.02;101676.25;1792955;78;21553;-55
2021/10/09 04:12:24;;;;;;;3.42;1.80;;;;;;;22.43;52.02;101662.64;1795421;79;20895;-56
2021/10/09 04:14:50;;;;;;;4.00;2.12;;;;;;;22.46;52.02;101668.95;1792176;78;20972;-56
2021/10/09 04:17:16;;;;;;;4.97;2.22;;;;;;;22.48;52.02;101672.25;1789787;78;21155;-54
2021/10/09 04:19:42;;;;;;;3.20;2.33;;;;;;;22.50;52.00;101671.36;1789713;79;21606;-56
2021/10/09 04:22:08;;;;;;;3.05;1.90;;;;;;;22.52;51.99;101669.11;1787964;79;21437;-52
2021/10/09 04:24:34;;;;;;;6.62;2.20;;;;;;;22.54;51.97;101675.16;1784288;78;20912;-56
2021/10/09 04:27:00;;;;;;;3.30;2.05;;;;;;;22.56;51.95;101671.52;1788455;78;21053;-56
2021/10/09 04:29:26;;;;;;;2.80;1.90;;;;;;;22.56;51.95;101674.30;1782068;78;22155;-56
2021/10/09 04:31:53;;;;;;;4.60;1.67;;;;;;;22.57;51.94;101678.72;1784098;78;20896;-56
2021/10/09 04:34:19;;;;;;;3.45;1.90;;;;;;;22.58;51.94;101680.34;1787153;78;21070;-56
2021/10/09 04:36:45;;;;;;;3.75;1.80;;;;;;;22.59;51.94;101676.44;1787714;78;21006;-56
2021/10/09 04:39:11;;;;;;;3.00;1.90;;;;;;;22.61;51.94;101679.73;1782955;79;21418;-56
2021/10/09 04:41:38;;;;;;;3.42;1.52;;;;;;;22.63;51.93;101680.80;1787508;78;21117;-56
2021/10/09 04:44:05;;;;;;;2.40;1.55;;;;;;;22.65;51.94;101685.48;1785942;78;21113;-56
2021/10/09 04:46:31;;;;;;;3.17;1.67;;;;;;;22.66;51.92;101689.31;1786510;78;21007;-56
2021/10/09 04:48:57;;;;;;;3.95;1.75;;;;;;;22.66;51.90;101682.38;1786009;78;21088;-56
2021/10/09 04:51:25;;;;;;;4.53;1.98;;;;;;;22.66;51.89;101683.77;1784629;78;21193;-56
2021/10/09 04:53:51;;;;;;;4.37;1.85;;;;;;;22.67;51.89;101684.02;1787467;78;21106;-56
2021/10/09 04:56:17;;;;;;;3.58;1.60;;;;;;;22.67;51.88;101697.07;1783989;78;21457;-54
2021/10/09 04:58:43;;;;;;;2.98;1.60;;;;;;;22.66;51.87;101692.08;1788875;79;21076;-56
2021/10/09 05:01:09;;;;;;;4.67;1.60;;;;;;;22.66;51.84;101699.02;1784760;78;21125;-56
2021/10/09 05:03:35;;;;;;;2.65;1.60;;;;;;;22.70;51.84;101699.28;1783677;78;21159;-56
2021/10/09 05:06:01;;;;;;;2.22;1.35;;;;;;;22.67;51.82;101681.25;1784925;78;21168;-55
2021/10/09 05:08:27;;;;;;;3.77;1.60;;;;;;;22.70;51.78;101701.45;1787020;78;21096;-56
2021/10/09 05:10:54;;;;;;;2.62;1.65;;;;;;;22.66;51.76;101687.92;1787686;78;21010;-56
2021/10/09 05:13:20;;;;;;;2.92;1.52;;;;;;;22.66;51.75;101692.67;1785922;78;21021;-56
2021/10/09 05:15:46;;;;;;;2.98;1.95;;;;;;;22.65;51.76;101697.96;1786352;78;20989;-56
2021/10/09 05:18:12;;;;;;;3.20;1.82;;;;;;;22.63;51.76;101702.42;1785613;78;21793;-56
2021/10/09 05:20:39;;;;;;;2.47;1.62;;;;;;;22.64;51.77;101712.95;1786263;78;21033;-56
2021/10/09 05:23:05;;;;;;;2.90;1.80;;;;;;;22.62;51.76;101713.81;1783836;78;21085;-56
2021/10/09 05:25:32;;;;;;;4.67;2.12;;;;;;;22.62;51.76;101713.25;1782555;78;21069;-56
2021/10/09 05:28:05;;;;;;;4.30;1.98;;;;;;;22.62;51.75;101718.80;1782894;78;21610;-56
2021/10/09 05:30:27;;;;;;;3.33;2.17;;;;;;;22.63;51.75;101718.23;1773543;79;21068;-56
2021/10/09 05:33:09;;;;;;;3.52;2.12;;;;;;;22.61;51.71;101718.57;1779202;79;21089;-56
2021/10/09 05:35:27;;;;;;;4.37;2.33;;;;;;;22.61;51.71;101724.12;1772642;79;21093;-56
2021/10/09 05:37:53;;;;;;;3.60;1.87;;;;;;;22.61;51.70;101721.91;1777188;79;21038;-56
2021/10/09 05:40:19;;;;;;;3.35;2.10;;;;;;;22.59;51.69;101733.30;1776719;79;21082;-56
2021/10/09 05:42:45;;;;;;;4.95;2.33;;;;;;;22.58;51.67;101725.27;1780612;79;21094;-56
2021/10/09 05:45:11;;;;;;;3.95;2.27;;;;;;;22.57;51.66;101727.25;1780322;79;21022;-56
2021/10/09 05:47:38;;;;;;;5.03;2.17;;;;;;;22.57;51.67;101733.36;1779029;79;21151;-56
2021/10/09 05:50:08;;;;;;;4.65;2.33;;;;;;;22.58;51.65;101734.98;1781479;79;21635;-56
2021/10/09 05:52:40;;;;;;;4.78;2.42;;;;;;;22.58;51.62;101726.66;1780738;79;21078;-56
2021/10/09 05:55:14;;;;;;;5.55;2.12;;;;;;;22.57;51.60;101735.57;1779233;79;21897;-57
2021/10/09 05:57:53;;;;;;;4.40;2.40;;;;;;;22.57;51.58;101738.34;1779083;79;22586;-57
2021/10/09 06:46:30;;;;;;;4.25;2.80;;;;;;;22.45;50.96;101778.81;1744531;80;21577;-58
2021/10/09 06:59:36;;;;;;;6.08;2.90;;;;;;;22.45;50.83;101771.88;1772539;79;21054;-58
2021/10/09 07:02:00;;;;;;;4.80;3.30;;;;;;;22.45;50.78;101770.49;1773291;79;21183;-57
2021/10/09 07:04:26;;;;;;;5.40;2.67;;;;;;;22.45;50.71;101779.61;1767418;79;21163;-57
2021/10/09 07:06:54;;;;;;;5.05;2.75;;;;;;;22.44;50.68;101772.44;1773086;79;21000;-57
2021/10/09 07:09:20;;;;;;;5.58;2.90;;;;;;;22.44;50.66;101773.00;1766842;79;21059;-57
2021/10/09 07:11:46;;;;;;;4.60;2.60;;;;;;;22.42;50.63;101780.23;1744666;80;21032;-57
2021/10/09 07:14:12;;;;;;;4.97;2.65;;;;;;;22.44;50.62;101777.98;1733910;80;21305;-58
2021/10/09 07:16:39;;;;;;;5.25;3.17;;;;;;;22.43;50.58;101777.72;1788701;78;21089;-57
2021/10/09 07:19:04;;;;;;;4.12;2.87;;;;;;;22.45;50.54;101785.74;1791267;78;21153;-57
2021/10/09 07:21:31;;;;;;;5.15;3.30;;;;;;;22.46;50.50;101781.25;1792180;79;21531;-57
2021/10/09 07:23:57;;;;;;;8.65;3.02;;;;;;;22.46;50.45;101786.80;1791724;79;21085;-58
2021/10/09 07:26:23;;;;;;;8.20;3.22;;;;;;;22.46;50.39;101797.89;1794855;79;21205;-57
2021/10/09 07:31:28;;;;;;;6.33;3.25;;;;;;;22.49;50.28;101788.16;1841860;76;22131;-57
2021/10/09 07:33:54;;;;;;;4.90;2.83;;;;;;;22.45;50.26;101796.25;1810990;78;20940;-57
2021/10/09 07:36:20;;;;;;;6.67;3.52;;;;;;;22.46;50.25;101802.61;1808307;78;22801;-57
2021/10/09 07:38:46;;;;;;;4.55;3.02;;;;;;;22.45;50.23;101789.31;1806364;78;21357;-57
2021/10/09 07:41:12;;;;;;;7.78;3.22;;;;;;;22.45;50.18;101785.15;1806551;77;20917;-57
2021/10/09 07:43:38;;;;;;;5.90;3.20;;;;;;;22.46;50.15;101802.05;1808750;77;21062;-57
2021/10/09 07:46:04;;;;;;;4.47;2.85;;;;;;;22.46;50.10;101802.05;1810692;77;21654;-57
2021/10/09 07:48:30;;;;;;;6.00;3.12;;;;;;;22.47;50.04;101807.05;1804128;77;21056;-57
2021/10/09 07:50:57;;;;;;;5.17;3.05;;;;;;;22.44;50.05;101801.55;1804802;77;20969;-57
2021/10/09 07:53:24;;;;;;;4.30;2.83;;;;;;;22.43;50.01;101808.22;1803774;77;20955;-57
2021/10/09 07:55:50;;;;;;;4.85;3.00;;;;;;;22.42;50.01;101806.57;1807228;77;21359;-57
2021/10/09 07:58:16;;;;;;;5.65;3.10;;;;;;;22.40;50.02;101797.75;1805830;77;21073;-57
2021/10/09 08:00:42;;;;;;;5.33;3.00;;;;;;;22.41;50.00;101799.37;1813111;75;21482;-57
2021/10/09 08:03:08;;;;;;;4.90;3.20;;;;;;;22.42;50.00;101796.04;1817714;77;21122;-57
2021/10/09 08:05:35;;;;;;;5.05;3.20;;;;;;;22.42;49.97;101789.93;1813366;77;21641;-57
2021/10/09 08:08:02;;;;;;;5.50;3.15;;;;;;;22.44;49.94;101796.57;1783412;77;21085;-57
2021/10/09 08:10:28;;;;;;;5.45;3.17;;;;;;;22.43;49.92;101792.97;1805693;77;22218;-57
2021/10/09 08:12:54;;;;;;;5.53;3.35;;;;;;;22.43;49.88;101795.75;1807887;77;21946;-57
2021/10/09 08:15:21;;;;;;;7.00;3.67;;;;;;;22.43;49.88;101794.92;1802735;77;21065;-57
2021/10/09 08:17:47;;;;;;;6.33;3.37;;;;;;;22.42;49.88;101784.39;1794729;77;21055;-57
2021/10/09 08:20:13;;;;;;;10.78;4.03;;;;;;;22.41;49.87;101785.51;1805354;77;21071;-57
2021/10/09 08:22:44;;;;;;;11.33;4.97;;;;;;;22.41;49.83;101788.28;1812524;77;21064;-57
2021/10/09 08:35:23;;;;;;;19.77;7.97;;;;;;;22.44;49.50;101780.77;1808950;77;21029;-57
2021/10/09 08:41:09;;;;;;;37.28;11.88;;;;;;;22.40;49.31;101786.66;1806750;77;21107;-58
2021/10/09 08:43:36;;;;;;;36.28;13.98;;;;;;;22.40;49.32;101783.06;1807229;77;21628;-58
2021/10/09 08:46:03;;;;;;;57.85;18.35;;;;;;;22.42;49.31;101788.55;1807864;78;21088;-57
2021/10/09 08:48:30;;;;;;;93.92;27.32;;;;;;;22.43;49.27;101789.37;1807350;77;20981;-57
2021/10/09 08:50:57;;;;;;;42.10;13.40;;;;;;;22.45;49.25;101792.67;1811204;78;21701;-57
2021/10/09 08:53:38;;;;;;;213.25;64.82;;;;;;;22.45;49.25;101788.52;1806944;77;21083;-58
2021/10/09 08:56:04;;;;;;;271.68;81.37;;;;;;;22.45;49.24;101782.97;1804164;77;21144;-58
2021/10/09 08:58:37;;;;;;;144.93;42.60;;;;;;;22.43;49.23;101791.59;1809494;78;21045;-57
2021/10/09 09:01:20;;;;;;;73.95;24.00;;;;;;;22.43;49.24;101791.59;1803933;77;21118;-56
2021/10/09 09:04:14;;;;;;;31.52;9.30;;;;;;;22.44;49.22;101795.19;1799792;77;21148;-59
2021/10/09 09:31:10;;;;;;;19.55;9.15;;;;;;;22.41;49.12;101788.28;1797574;77;21152;-57
2021/10/09 09:38:54;;;;;;;30.50;18.67;;;;;;;22.42;49.16;101788.55;1803918;77;21108;-59
2021/10/09 09:40:58;;;;;;;35.33;21.87;;;;;;;22.42;49.23;101792.70;1800228;77;21110;-59
2021/10/09 09:43:24;;;;;;;35.73;22.55;;;;;;;22.42;49.36;101785.77;1810687;77;21939;-58
2021/10/09 09:45:50;;;;;;;34.67;22.87;;;;;;;22.43;49.46;101784.66;1785449;78;21073;-59
2021/10/09 09:48:16;;;;;;;38.30;24.92;;;;;;;22.43;49.58;101783.27;1792553;78;20920;-59
2021/10/09 09:50:43;;;;;;;41.88;27.75;;;;;;;22.46;49.66;101784.59;1788257;78;20971;-59
2021/10/09 09:53:09;;;;;;;50.55;33.48;;;;;;;22.46;49.75;101786.80;1814092;77;21690;-58
2021/10/09 09:55:35;;;;;;;49.88;34.83;;;;;;;22.48;49.84;101790.67;1807530;77;21993;-59
2021/10/09 09:58:02;;;;;;;53.35;41.75;;;;;;;22.47;49.95;101785.69;1803618;77;21083;-58
2021/10/09 10:00:30;;;;;;;54.27;42.93;;;;;;;22.49;50.04;101790.93;1804659;77;21068;-58
2021/10/09 10:02:57;;;;;;;63.33;49.38;;;;;;;22.47;50.15;101785.69;1787602;78;21094;-59
2021/10/09 10:05:28;;;;;;;59.38;52.93;;;;;;;22.48;50.28;101777.62;1813703;77;21049;-58
2021/10/09 10:07:55;;;;;;;57.17;51.02;;;;;;;22.50;50.42;101772.58;1808847;77;21798;-58
2021/10/09 10:10:22;;;;;;;58.17;51.28;;;;;;;22.51;50.55;101772.84;1810369;77;21053;-58
2021/10/09 10:12:54;;;;;;;55.05;49.08;;;;;;;22.53;50.62;101780.87;1811768;77;21077;-58
2021/10/09 10:15:22;;;;;;;57.55;51.65;;;;;;;22.53;50.73;101773.94;1816042;77;21105;-58
2021/10/09 10:17:48;;;;;;;36.95;32.75;;;;;;;22.54;50.86;101774.17;1791780;78;21039;-58
2021/10/09 10:20:18;;;;;;;33.33;27.50;;;;;;;22.53;50.81;101776.12;1811253;77;21445;-58
2021/10/09 10:22:51;;;;;;;37.30;29.63;;;;;;;22.53;50.47;101775.32;1813352;77;21522;-58
2021/10/09 10:25:26;;;;;;;29.72;26.23;;;;;;;22.53;50.06;101775.32;1807479;77;21118;-58
2021/10/09 10:28:17;;;;;;;30.72;23.00;;;;;;;22.52;49.85;101777.83;1808368;77;21552;-57
2021/10/09 10:30:49;;;;;;;27.42;21.70;;;;;;;22.52;49.58;101779.22;1809108;77;21032;-58
2021/10/09 10:33:21;;;;;;;23.65;18.57;;;;;;;22.51;49.12;101778.95;1791816;78;21889;-58
2021/10/09 10:35:47;;;;;;;28.20;18.52;;;;;;;22.51;48.71;101778.95;1795592;78;21065;-58
2021/10/09 10:38:25;;;;;;;25.00;15.43;;;;;;;22.50;48.30;101791.99;1792416;79;21552;-58
2021/10/09 10:41:00;;;;;;;19.77;14.25;;;;;;;22.49;47.89;101786.77;1797438;78;21462;-58
2021/10/09 10:43:42;;;;;;;15.10;12.65;;;;;;;22.46;47.47;101785.42;1798038;78;21109;-58
2021/10/09 10:46:34;;;;;;;19.40;11.78;;;;;;;22.45;47.08;101785.74;1791304;78;21073;-58
2021/10/09 10:49:18;;;;;;;20.02;11.35;;;;;;;22.42;46.73;101796.87;1798315;78;21125;-58
2021/10/09 10:51:51;;;;;;;13.65;10.00;;;;;;;22.40;46.42;101795.54;1797590;78;21097;-56
2021/10/09 10:57:02;;;;;;;17.48;10.53;;;;;;;22.38;46.12;101787.52;1797689;78;21099;-55
2021/10/09 10:59:46;;;;;;;90.95;32.75;;;;;;;22.38;45.80;101791.67;1798819;79;21163;-56
2021/10/09 11:02:11;;;;;;;34.43;14.87;;;;;;;22.36;45.67;101789.79;1795151;78;21065;-47
2021/10/09 11:04:49;;;;;;;26.40;12.80;;;;;;;22.38;45.79;101787.52;1807732;78;21060;-49
2021/10/09 11:07:16;;;;;;;16.50;8.58;;;;;;;22.40;45.87;101792.20;1799574;79;21061;-50
2021/10/09 11:09:43;;;;;;;15.80;8.48;;;;;;;22.41;45.77;101786.89;1799557;78;21417;-49
2021/10/09 11:12:30;;;;;;;12.30;7.22;;;;;;;22.41;45.44;101791.05;1797316;79;21204;-48
2021/10/09 11:15:23;;;;;;;13.70;8.83;;;;;;;22.40;45.04;101784.45;1803479;79;20981;-52
2021/10/09 11:17:57;;;;;;;13.38;9.15;;;;;;;22.40;44.91;101788.61;1797772;79;21342;-51
2021/10/09 11:20:42;;;;;;;15.03;8.83;;;;;;;22.38;45.04;101795.01;1793083;78;21589;-49
2021/10/09 11:23:08;;;;;;;14.60;8.88;;;;;;;22.36;45.14;101791.17;1795133;79;21114;-51
2021/10/09 11:25:41;;;;;;;16.82;9.35;;;;;;;22.35;45.29;101790.09;1806599;79;21293;-48
2021/10/09 11:28:29;;;;;;;14.18;8.95;;;;;;;22.35;45.42;101781.77;1730862;81;21567;-49
2021/10/09 11:30:53;;;;;;;14.70;9.78;;;;;;;22.34;45.58;101789.26;1761608;80;21611;-51
2021/10/09 11:33:27;;;;;;;16.90;9.43;;;;;;;22.36;45.75;101792.56;1768522;80;21085;-51
2021/10/09 11:35:54;;;;;;;19.65;10.58;;;;;;;22.37;45.89;101787.25;1768574;79;21457;-51
2021/10/09 11:38:30;;;;;;;15.48;9.43;;;;;;;22.37;46.04;101785.86;1771457;79;21323;-47
2021/10/09 11:41:01;;;;;;;18.15;10.13;;;;;;;22.39;46.16;101795.27;1769384;79;21010;-48
2021/10/09 11:43:52;;;;;;;12.47;9.25;;;;;;;22.39;46.29;101801.64;1763540;80;21084;-49
2021/10/09 11:55:01;;;;;;;16.10;9.75;;;;;;;22.36;46.77;101806.98;1706282;82;21067;-50
2021/10/09 11:57:17;;;;;;;10.53;8.23;;;;;;;22.36;46.88;101800.05;1730652;81;21092;-49
2021/10/09 11:59:43;;;;;;;13.15;8.38;;;;;;;22.36;46.95;101797.28;1769987;79;21576;-50
2021/10/09 12:02:11;;;;;;;11.40;8.83;;;;;;;22.37;47.04;101804.45;1768088;80;20907;-46
2021/10/09 12:04:37;;;;;;;13.15;9.08;;;;;;;22.38;47.09;101808.88;1766998;80;21136;-50
2021/10/09 12:09:45;;;;;;;10.40;8.55;;;;;;;22.36;47.24;101806.98;1770613;79;21121;-48
2021/10/09 12:12:31;;;;;;;13.15;8.28;;;;;;;22.36;47.30;101804.21;1761552;81;21080;-50
2021/10/09 12:14:54;;;;;;;17.30;9.35;;;;;;;22.36;47.38;101798.67;1733924;81;21902;-51
2021/10/09 12:17:22;;;;;;;25.17;12.05;;;;;;;22.36;47.44;101803.66;1755965;80;21122;-52
2021/10/09 12:19:58;;;;;;;22.48;12.03;;;;;;;22.39;47.51;101798.05;1762588;80;21555;-51
2021/10/09 12:22:25;;;;;;;16.20;10.70;;;;;;;22.39;47.57;101798.88;1758810;79;21139;-50
2021/10/09 12:24:53;;;;;;;18.98;10.60;;;;;;;22.38;47.63;101796.39;1758003;80;21138;-50
2021/10/09 12:27:26;;;;;;;14.53;10.68;;;;;;;22.39;47.70;101796.66;1765212;79;21092;-49
2021/10/09 12:30:05;;;;;;;14.05;9.68;;;;;;;22.39;47.73;101793.89;1724886;81;21951;-51
2021/10/09 12:32:42;;;;;;;14.95;9.28;;;;;;;22.37;47.77;101790.02;1766863;80;21528;-50
2021/10/09 12:35:22;;;;;;;12.60;9.55;;;;;;;22.37;47.84;101791.41;1766901;80;20996;-50
2021/10/09 12:38:01;;;;;;;;;;;;;;;22.38;47.90;101788.08;1758319;80;21561;-49
2021/10/09 12:40:44;;;;;;;14.33;9.63;;;;;;;22.39;47.95;101793.89;1770091;79;20283;-50
2021/10/09 12:43:13;;;;;;;20.35;10.78;;;;;;;22.38;47.99;101795.83;1772225;79;21591;-51
2021/10/09 12:45:42;;;;;;;17.82;10.78;;;;;;;22.38;48.01;101783.92;1764698;80;21050;-47
2021/10/09 12:48:09;;;;;;;16.57;10.58;;;;;;;22.37;48.05;101788.64;1764225;79;21075;-50
2021/10/09 12:50:39;;;;;;;16.87;11.48;;;;;;;22.37;48.08;101787.81;1771347;79;21526;-49
2021/10/09 12:53:05;;;;;;;16.62;10.53;;;;;;;22.37;48.14;101790.59;1767587;79;21138;-50
2021/10/09 12:55:34;;;;;;;14.45;9.98;;;;;;;22.35;48.19;101790.91;1764131;79;21290;-48
2021/10/09 12:58:04;;;;;;;15.03;9.88;;;;;;;22.35;48.23;101790.91;1769611;80;21371;-47
2021/10/09 13:00:31;;;;;;;13.72;10.32;;;;;;;22.36;48.28;101785.63;1769964;79;21536;-48
2021/10/09 13:02:58;;;;;;;15.72;10.30;;;;;;;22.38;48.34;101782.53;1770284;79;21132;-48
2021/10/09 13:05:26;;;;;;;20.08;12.03;;;;;;;22.38;48.39;101790.84;1761214;80;21024;-50
2021/10/09 13:07:53;;;;;;;18.52;12.13;;;;;;;22.38;48.45;101779.76;1765875;80;22222;-52
2021/10/09 13:10:21;;;;;;;21.50;11.88;;;;;;;22.36;48.51;101775.92;1766678;80;21087;-48
2021/10/09 13:12:48;;;;;;;16.42;11.35;;;;;;;22.36;48.54;101775.09;1764911;79;21051;-48
2021/10/09 13:15:17;;;;;;;17.10;11.93;;;;;;;22.36;48.59;101772.33;1723773;82;21083;-47
2021/10/09 13:17:47;;;;;;;24.57;13.03;;;;;;;22.35;48.66;101768.73;1769882;79;21024;-49
2021/10/09 13:20:14;;;;;;;387.50;123.45;;;;;;;22.35;48.70;101773.45;1768766;80;21091;-48
2021/10/09 13:22:40;;;;;;;269.73;84.92;;;;;;;22.35;48.73;101767.34;1741303;81;21023;-48
2021/10/09 13:25:08;;;;;;;66.00;25.82;;;;;;;22.35;48.80;101767.91;1752757;80;21171;-51
2021/10/09 13:27:35;;;;;;;35.90;16.70;;;;;;;22.36;48.83;101770.94;1769888;80;21533;-47
2021/10/09 13:30:03;;;;;;;25.15;14.93;;;;;;;22.36;48.88;101769.55;1774366;80;21058;-50
2021/10/09 13:32:29;;;;;;;22.17;12.58;;;;;;;22.35;48.93;101779.82;1774038;80;21843;-47
2021/10/09 13:34:55;;;;;;;22.73;13.38;;;;;;;22.34;49.00;101779.55;1763601;80;21064;-50
2021/10/09 13:37:23;;;;;;;19.70;12.37;;;;;;;22.33;49.03;101780.67;1759768;80;21012;-50